createdAt,value
2022-11-08T00:01:55.451Z,80.95
2022-11-08T00:04:31.214Z,80.72
2022-11-08T00:07:20.879Z,80.87
2022-11-08T00:10:11.126Z,80.86
2022-11-08T00:13:01.410Z,80.88
2022-11-08T00:15:38.392Z,81.32
2022-11-08T00:18:11.348Z,81.52
2022-11-08T00:20:43.670Z,81.63
2022-11-08T00:23:16.048Z,81.45
2022-11-08T00:25:54.557Z,80.80
2022-11-08T00:28:27.665Z,80.33
2022-11-08T00:30:59.993Z,80.41
2022-11-08T00:33:33.611Z,79.94
2022-11-08T00:36:07.121Z,79.61
2022-11-08T00:38:44.394Z,79.17
2022-11-08T00:41:17.547Z,78.88
2022-11-08T00:43:49.893Z,78.96
2022-11-08T00:46:24.235Z,78.76
2022-11-08T00:48:56.724Z,78.76
2022-11-08T00:51:30.094Z,78.76
2022-11-08T00:54:02.475Z,78.78
2022-11-08T00:56:35.208Z,78.93
2022-11-08T00:59:09.039Z,79.34
2022-11-08T01:01:42.291Z,79.53
2022-11-08T01:04:20.916Z,79.56
2022-11-08T01:06:53.418Z,79.58
2022-11-08T01:09:26.408Z,79.59
2022-11-08T01:11:58.801Z,79.84
2022-11-08T01:14:31.107Z,79.83
2022-11-08T01:17:03.694Z,79.49
2022-11-08T01:19:36.343Z,79.60
2022-11-08T01:22:08.377Z,79.65
2022-11-08T01:24:42.501Z,80.33
2022-11-08T01:27:14.973Z,80.88
2022-11-08T01:29:47.466Z,80.99
2022-11-08T01:32:19.800Z,80.93
2022-11-08T01:34:54.852Z,80.83
2022-11-08T01:37:27.211Z,80.46
2022-11-08T01:40:00.109Z,80.23
2022-11-08T01:42:34.482Z,80.12
2022-11-08T01:45:12.901Z,80.01
2022-11-08T01:47:45.322Z,79.49
2022-11-08T01:50:21.546Z,79.17
2022-11-08T01:52:57.079Z,78.97
2022-11-08T01:55:35.928Z,78.99
2022-11-08T01:58:15.840Z,78.90
2022-11-08T02:00:48.949Z,78.74
2022-11-08T02:03:22.789Z,78.55
2022-11-08T02:05:56.341Z,78.50
2022-11-08T02:08:34.552Z,78.62
2022-11-08T02:11:14.955Z,78.42
2022-11-08T02:13:49.154Z,78.22
2022-11-08T02:16:22.202Z,78.00
2022-11-08T02:18:55.141Z,78.21
2022-11-08T02:21:35.929Z,77.65
2022-11-08T02:24:12.000Z,77.33
2022-11-08T02:26:46.484Z,77.52
2022-11-08T02:29:33.811Z,77.62
2022-11-08T02:32:10.601Z,77.44
2022-11-08T02:34:51.449Z,77.45
2022-11-08T02:37:25.245Z,77.59
2022-11-08T02:39:57.934Z,77.50
2022-11-08T02:42:30.680Z,77.65
2022-11-08T02:45:05.263Z,77.49
2022-11-08T02:47:35.876Z,77.69
2022-11-08T02:50:12.956Z,77.59
2022-11-08T02:52:46.239Z,76.93
2022-11-08T02:55:18.786Z,76.80
2022-11-08T02:57:51.786Z,76.84
2022-11-08T03:00:24.546Z,76.63
2022-11-08T03:02:59.701Z,76.34
2022-11-08T03:05:39.203Z,76.85
2022-11-08T03:08:14.567Z,77.08
2022-11-08T03:10:47.425Z,77.32
2022-11-08T03:13:21.432Z,77.60
2022-11-08T03:15:53.722Z,77.87
2022-11-08T03:18:25.798Z,78.35
2022-11-08T03:21:00.222Z,78.74
2022-11-08T03:23:34.303Z,78.81
2022-11-08T03:26:11.126Z,78.88
2022-11-08T03:28:43.515Z,79.23
2022-11-08T03:31:16.081Z,79.39
2022-11-08T03:33:48.646Z,79.25
2022-11-08T03:36:21.013Z,79.53
2022-11-08T03:38:53.503Z,79.51
2022-11-08T03:41:26.194Z,79.34
2022-11-08T03:43:58.810Z,79.10
2022-11-08T03:46:31.160Z,79.32
2022-11-08T03:49:03.350Z,79.19
2022-11-08T03:51:35.589Z,79.16
2022-11-08T03:54:07.811Z,79.12
2022-11-08T03:56:39.889Z,79.20
2022-11-08T03:59:16.448Z,78.98
2022-11-08T04:01:48.622Z,78.83
2022-11-08T04:04:22.189Z,79.06
2022-11-08T04:06:54.627Z,79.10
2022-11-08T04:09:27.213Z,79.04
2022-11-08T04:12:16.968Z,79.03
2022-11-08T04:15:08.341Z,79.17
2022-11-08T04:17:58.386Z,79.17
2022-11-08T04:20:49.594Z,79.46
2022-11-08T04:23:22.877Z,79.53
2022-11-08T04:25:59.362Z,79.73
2022-11-08T04:28:35.390Z,80.11
2022-11-08T04:31:10.937Z,80.24
2022-11-08T04:33:43.552Z,80.25
2022-11-08T04:36:17.594Z,80.14
2022-11-08T04:38:52.807Z,80.28
2022-11-08T04:41:26.849Z,80.46
2022-11-08T04:43:59.505Z,80.27
2022-11-08T04:46:33.351Z,80.43
2022-11-08T04:49:06.633Z,80.71
2022-11-08T04:51:39.737Z,80.86
2022-11-08T04:54:15.403Z,80.51
2022-11-08T04:56:47.446Z,80.18
2022-11-08T04:59:19.622Z,79.80
2022-11-08T05:01:53.367Z,79.73
2022-11-08T05:04:26.624Z,79.78
2022-11-08T05:06:58.712Z,79.54
2022-11-08T05:09:31.159Z,79.71
2022-11-08T05:12:03.421Z,79.70
2022-11-08T05:14:35.732Z,79.49
2022-11-08T05:17:08.335Z,79.66
2022-11-08T05:19:58.943Z,79.62
2022-11-08T05:22:48.708Z,79.31
2022-11-08T05:25:20.957Z,79.26
2022-11-08T05:27:53.582Z,79.41
2022-11-08T05:30:25.875Z,78.85
2022-11-08T05:33:01.002Z,78.46
2022-11-08T05:35:36.096Z,78.40
2022-11-08T05:38:10.298Z,78.45
2022-11-08T05:40:44.561Z,78.35
2022-11-08T05:43:18.738Z,78.43
2022-11-08T05:45:51.221Z,78.06
2022-11-08T05:48:23.816Z,77.82
2022-11-08T05:50:58.535Z,77.45
2022-11-08T05:53:32.395Z,77.43
2022-11-08T05:56:12.605Z,77.75
2022-11-08T05:58:47.160Z,77.86
2022-11-08T06:01:21.541Z,78.26
2022-11-08T06:03:53.800Z,78.73
2022-11-08T06:06:28.526Z,78.63
2022-11-08T06:09:00.317Z,78.83
2022-11-08T06:11:32.294Z,78.93
2022-11-08T06:14:04.510Z,79.02
2022-11-08T06:16:37.950Z,79.28
2022-11-08T06:19:12.495Z,79.22
2022-11-08T06:21:43.582Z,79.46
2022-11-08T06:24:18.962Z,79.92
2022-11-08T06:26:51.419Z,80.64
2022-11-08T06:29:28.622Z,81.20
2022-11-08T06:32:00.809Z,81.56
2022-11-08T06:34:33.199Z,81.26
2022-11-08T06:37:08.322Z,80.89
2022-11-08T06:39:45.877Z,81.12
2022-11-08T06:42:17.992Z,81.12
2022-11-08T06:44:50.846Z,81.44
2022-11-08T06:47:23.719Z,81.28
2022-11-08T06:49:56.523Z,81.35
2022-11-08T06:52:28.834Z,81.48
2022-11-08T06:55:03.897Z,81.63
2022-11-08T06:57:35.927Z,82.04
2022-11-08T07:00:18.327Z,82.75
2022-11-08T07:02:54.773Z,82.51
2022-11-08T07:05:27.797Z,82.66
2022-11-08T07:08:02.172Z,82.60
2022-11-08T07:10:36.555Z,83.34
2022-11-08T07:13:12.003Z,83.43
2022-11-08T07:15:45.408Z,83.55
2022-11-08T07:18:19.421Z,83.74
2022-11-08T07:20:52.339Z,84.16
2022-11-08T07:23:24.475Z,84.05
2022-11-08T07:25:56.547Z,84.13
2022-11-08T07:28:28.891Z,84.37
2022-11-08T07:31:03.868Z,85.47
2022-11-08T07:33:36.568Z,85.16
2022-11-08T07:36:09.218Z,85.83
2022-11-08T07:38:41.519Z,86.12
2022-11-08T07:41:13.781Z,86.32
2022-11-08T07:43:46.092Z,86.47
2022-11-08T07:46:22.075Z,86.54
2022-11-08T07:48:54.953Z,86.64
2022-11-08T07:51:27.106Z,86.79
2022-11-08T07:54:02.856Z,86.37
2022-11-08T07:56:35.329Z,86.64
2022-11-08T07:59:07.486Z,86.27
2022-11-08T08:01:39.613Z,86.29
2022-11-08T08:04:12.328Z,86.25
2022-11-08T08:06:44.325Z,85.02
2022-11-08T08:09:16.606Z,84.50
2022-11-08T08:11:48.801Z,84.57
2022-11-08T08:14:20.912Z,84.32
2022-11-08T08:16:53.210Z,84.39
2022-11-08T08:19:25.383Z,84.31
2022-11-08T08:21:57.479Z,84.29
2022-11-08T08:24:29.503Z,83.96
2022-11-08T08:27:01.507Z,83.61
2022-11-08T08:29:33.461Z,84.06
2022-11-08T08:32:05.803Z,83.63
2022-11-08T08:34:38.127Z,82.92
2022-11-08T08:37:10.304Z,82.65
2022-11-08T08:39:42.308Z,82.21
2022-11-08T08:42:14.288Z,82.14
2022-11-08T08:44:46.294Z,82.03
2022-11-08T08:47:18.464Z,81.82
2022-11-08T08:49:50.641Z,81.94
2022-11-08T08:52:23.028Z,81.86
2022-11-08T08:54:54.946Z,81.77
2022-11-08T08:57:27.041Z,81.08
2022-11-08T09:02:51.408Z,80.85
2022-11-08T09:05:23.862Z,80.85
2022-11-08T09:07:58.890Z,80.96
2022-11-08T09:10:31.284Z,80.58
2022-11-08T09:13:03.849Z,80.45
2022-11-08T09:15:36.068Z,80.17
2022-11-08T09:18:09.719Z,79.57
2022-11-08T09:20:43.849Z,79.15
2022-11-08T09:23:18.149Z,79.16
2022-11-08T09:25:50.848Z,78.84
2022-11-08T09:28:26.918Z,78.65
2022-11-08T09:31:04.013Z,78.71
2022-11-08T09:33:36.481Z,78.28
2022-11-08T09:36:13.621Z,78.51
2022-11-08T09:38:48.262Z,78.14
2022-11-08T09:41:55.475Z,77.69
2022-11-08T09:44:49.024Z,77.62
2022-11-08T09:47:24.961Z,77.55
2022-11-08T09:50:06.530Z,77.28
2022-11-08T09:52:41.488Z,77.10
2022-11-08T09:55:22.113Z,77.03
2022-11-08T09:58:12.164Z,76.97
2022-11-08T10:00:45.208Z,76.60
2022-11-08T10:03:19.784Z,76.28
2022-11-08T10:06:03.417Z,76.37
2022-11-08T10:08:44.919Z,76.06
2022-11-08T12:14:14.940Z,68.95
2022-11-08T12:16:55.015Z,68.76
2022-11-08T12:20:24.190Z,68.76
2022-11-08T12:23:24.881Z,68.47
2022-11-08T12:26:05.580Z,68.85
2022-11-08T12:28:53.450Z,68.75
2022-11-08T12:31:33.406Z,68.80
2022-11-08T12:34:22.727Z,68.70
2022-11-08T12:37:08.420Z,68.34
2022-11-08T12:39:47.112Z,68.49
2022-11-08T12:42:37.961Z,68.51
2022-11-08T12:45:39.196Z,68.91
2022-11-08T12:48:23.660Z,68.89
2022-11-08T12:51:04.473Z,68.41
2022-11-08T12:54:02.067Z,68.32
2022-11-08T12:56:40.350Z,68.01
2022-11-08T12:59:22.272Z,68.56
2022-11-08T13:01:56.085Z,68.24
2022-11-08T13:04:46.455Z,68.70
2022-11-08T13:07:27.006Z,68.88
2022-11-08T13:10:11.088Z,68.48
2022-11-08T13:12:52.163Z,68.88
2022-11-08T13:15:26.234Z,68.90
2022-11-08T13:18:33.898Z,68.86
2022-11-08T13:21:38.379Z,68.81
2022-11-08T13:24:45.679Z,68.22
2022-11-08T13:27:41.018Z,68.24
2022-11-08T13:30:36.811Z,68.28
2022-11-08T13:33:20.372Z,68.62
2022-11-08T13:36:05.019Z,68.84
2022-11-08T13:38:50.341Z,68.86
2022-11-08T13:41:21.796Z,68.68
2022-11-08T13:43:56.342Z,68.73
2022-11-08T13:46:44.878Z,68.98
2022-11-08T13:49:24.269Z,69.42
2022-11-08T13:52:27.012Z,69.62
2022-11-08T13:54:59.044Z,69.82
2022-11-08T13:57:58.839Z,70.04
2022-11-08T14:00:47.015Z,69.96
2022-11-08T14:03:55.432Z,70.46
2022-11-08T14:06:33.665Z,70.26
2022-11-08T14:09:16.973Z,70.13
2022-11-08T14:11:59.089Z,70.17
2022-11-08T14:14:43.401Z,69.91
2022-11-08T14:17:29.017Z,69.89
2022-11-08T14:20:22.939Z,69.80
2022-11-08T14:22:55.383Z,69.36
2022-11-08T14:25:31.504Z,69.43
2022-11-08T14:28:03.662Z,69.49
2022-11-08T14:30:35.768Z,69.33
2022-11-08T14:33:19.256Z,69.43
2022-11-08T14:36:03.665Z,69.15
2022-11-08T14:38:38.059Z,69.45
2022-11-08T14:41:16.309Z,69.40
2022-11-08T14:43:55.062Z,69.27
2022-11-08T14:46:33.147Z,69.64
2022-11-08T14:49:20.213Z,69.85
2022-11-08T14:52:07.843Z,70.18
2022-11-08T14:54:43.268Z,70.26
2022-11-08T14:57:36.553Z,70.36
2022-11-08T15:00:18.947Z,70.77
2022-11-08T15:02:54.515Z,70.94
2022-11-08T15:05:33.721Z,70.87
2022-11-08T15:08:09.517Z,70.88
2022-11-08T15:10:52.521Z,70.85
2022-11-08T15:13:25.232Z,70.94
2022-11-08T15:16:02.324Z,70.92
2022-11-08T15:18:37.748Z,71.02
2022-11-08T15:21:24.485Z,71.37
2022-11-08T15:24:06.053Z,72.03
2022-11-08T15:26:38.396Z,72.46
2022-11-08T15:29:19.831Z,72.50
2022-11-08T15:32:01.178Z,72.54
2022-11-08T15:34:38.940Z,72.98
2022-11-08T15:37:28.164Z,73.53
2022-11-08T15:40:04.956Z,73.53
2022-11-08T15:42:44.715Z,73.83
2022-11-08T15:45:26.890Z,73.97
2022-11-08T15:48:13.727Z,74.18
2022-11-08T15:50:45.761Z,74.49
2022-11-08T15:53:18.830Z,74.38
2022-11-08T15:55:54.824Z,74.74
2022-11-08T15:58:30.099Z,74.68
2022-11-08T16:01:04.989Z,74.63
2022-11-08T16:03:37.073Z,74.78
2022-11-08T16:06:10.881Z,74.33
2022-11-08T16:08:43.277Z,74.35
2022-11-08T16:11:20.778Z,74.65
2022-11-08T16:13:52.968Z,75.11
2022-11-08T16:16:25.157Z,75.12
2022-11-08T16:18:57.182Z,75.38
2022-11-08T16:21:29.739Z,75.44
2022-11-08T16:24:02.615Z,75.44
2022-11-08T16:26:35.844Z,75.46
2022-11-08T16:29:08.688Z,75.47
2022-11-08T16:31:40.935Z,75.60
2022-11-08T16:34:13.418Z,76.03
2022-11-08T16:36:46.696Z,76.19
2022-11-08T16:39:22.773Z,76.09
2022-11-08T16:41:54.959Z,75.86
2022-11-08T16:44:27.092Z,76.27
2022-11-08T16:46:59.171Z,76.50
2022-11-08T16:49:33.404Z,76.47
2022-11-08T16:52:05.522Z,76.62
2022-11-08T16:54:37.896Z,76.59
2022-11-08T17:00:02.405Z,76.98
2022-11-08T17:02:37.109Z,77.03
2022-11-08T17:05:13.627Z,77.15
2022-11-08T17:07:45.952Z,76.88
2022-11-08T17:10:21.163Z,76.92
2022-11-08T17:12:54.372Z,77.10
2022-11-08T17:15:29.073Z,77.34
2022-11-08T17:18:00.202Z,77.12
2022-11-08T17:20:32.391Z,77.01
2022-11-08T17:23:04.660Z,76.63
2022-11-08T17:25:39.919Z,76.08
2022-11-08T17:28:13.771Z,75.91
2022-11-08T17:30:45.906Z,76.13
2022-11-08T17:33:18.388Z,76.22
2022-11-08T17:35:50.840Z,76.75
2022-11-08T17:38:23.038Z,76.51
2022-11-08T17:41:02.537Z,76.41
2022-11-08T17:43:34.999Z,76.27
2022-11-08T17:46:07.280Z,76.50
2022-11-08T17:48:40.049Z,76.01
2022-11-08T17:51:15.446Z,75.78
2022-11-08T17:53:48.579Z,75.54
2022-11-08T17:56:22.381Z,75.43
2022-11-08T17:58:55.186Z,75.58
2022-11-08T18:01:27.481Z,75.20
2022-11-08T18:04:00.371Z,75.25
2022-11-08T18:06:33.340Z,75.04
2022-11-08T18:09:06.521Z,75.08
2022-11-08T18:11:40.239Z,74.79
2022-11-08T18:14:13.876Z,74.59
2022-11-08T18:16:49.089Z,74.49
2022-11-08T18:19:22.438Z,74.24
2022-11-08T18:21:55.063Z,74.34
2022-11-08T18:24:28.490Z,74.47
2022-11-08T18:27:02.050Z,74.35
2022-11-08T18:29:34.923Z,74.38
2022-11-08T18:32:08.321Z,74.15
2022-11-08T18:34:40.776Z,74.26
2022-11-08T18:37:13.153Z,74.23
2022-11-08T18:39:45.652Z,74.48
2022-11-08T18:42:18.334Z,74.64
2022-11-08T18:44:51.074Z,74.36
2022-11-08T18:47:24.143Z,74.15
2022-11-08T18:50:01.379Z,74.26
2022-11-08T18:52:34.874Z,74.27
2022-11-08T18:55:09.745Z,74.08
2022-11-08T18:57:46.199Z,74.33
2022-11-08T19:00:21.551Z,74.79
2022-11-08T19:02:55.717Z,74.75
2022-11-08T19:05:29.906Z,74.48
2022-11-08T19:08:04.296Z,73.85
2022-11-08T19:10:39.228Z,74.16
2022-11-08T19:13:14.345Z,74.19
2022-11-08T19:15:57.263Z,74.02
2022-11-08T19:18:32.755Z,74.10
2022-11-08T19:21:09.581Z,74.46
2022-11-08T19:23:44.206Z,74.42
2022-11-08T19:26:20.037Z,74.41
2022-11-08T19:28:58.166Z,73.94
2022-11-08T19:31:35.299Z,73.87
2022-11-08T19:34:09.655Z,73.74
2022-11-08T19:36:44.926Z,73.50
2022-11-08T19:39:20.597Z,73.39
2022-11-08T19:41:55.359Z,73.27
2022-11-08T19:44:29.754Z,73.22
2022-11-08T19:47:05.050Z,73.24
2022-11-08T19:49:40.395Z,73.53
2022-11-08T19:52:15.354Z,73.41
2022-11-08T19:54:50.368Z,73.22
2022-11-08T19:57:29.604Z,73.27
2022-11-08T20:00:06.206Z,73.20
2022-11-08T20:02:47.135Z,73.45
2022-11-08T20:05:19.247Z,73.17
2022-11-08T20:07:53.271Z,73.24
2022-11-08T20:10:28.193Z,73.23
2022-11-08T20:13:00.466Z,73.39
2022-11-08T20:15:34.359Z,73.44
2022-11-08T20:18:09.796Z,73.37
2022-11-08T20:20:44.340Z,73.53
2022-11-08T20:23:18.895Z,73.38
2022-11-08T20:25:51.299Z,73.64
2022-11-08T20:28:24.142Z,73.49
2022-11-08T20:31:03.978Z,73.86
2022-11-08T20:33:38.058Z,73.79
2022-11-08T20:36:13.247Z,74.25
2022-11-08T20:38:46.087Z,74.65
2022-11-08T20:41:19.524Z,74.56
2022-11-08T20:43:51.777Z,74.33
2022-11-08T20:46:25.586Z,74.33
2022-11-08T20:49:01.736Z,74.19
2022-11-08T20:51:35.116Z,73.99
2022-11-08T20:54:07.357Z,74.61
2022-11-08T20:56:39.440Z,74.58
2022-11-08T20:59:12.401Z,74.45
2022-11-08T21:01:44.810Z,75.07
2022-11-08T21:04:17.194Z,74.86
2022-11-08T21:07:00.626Z,74.63
2022-11-08T21:09:49.931Z,74.75
2022-11-08T21:12:23.378Z,74.72
2022-11-08T21:14:55.724Z,74.78
2022-11-08T21:17:28.073Z,74.37
2022-11-08T21:20:00.802Z,74.35
2022-11-08T21:22:33.951Z,74.10
2022-11-08T21:25:06.902Z,74.14
2022-11-08T21:27:39.147Z,73.96
2022-11-08T21:30:13.366Z,74.12
2022-11-08T21:32:46.129Z,74.35
2022-11-08T21:35:18.812Z,74.25
2022-11-08T21:37:51.276Z,74.18
2022-11-08T21:40:23.599Z,74.15
2022-11-08T21:42:55.845Z,74.05
2022-11-08T21:45:29.055Z,74.25
2022-11-08T21:48:01.438Z,74.28
2022-11-08T21:50:34.507Z,74.44
2022-11-08T21:53:08.107Z,74.30
2022-11-08T21:55:40.565Z,74.19
2022-11-08T21:58:12.955Z,74.30
2022-11-08T22:00:50.971Z,74.22
2022-11-08T22:03:23.629Z,74.22
2022-11-08T22:05:56.074Z,74.68
2022-11-08T22:08:28.550Z,74.67
2022-11-08T22:11:00.843Z,74.55
2022-11-08T22:13:33.118Z,74.57
2022-11-08T22:16:05.951Z,74.61
2022-11-08T22:21:41.221Z,74.45
2022-11-08T22:24:17.316Z,75.07
2022-11-08T22:26:50.810Z,74.50
2022-11-08T22:29:23.282Z,74.71
2022-11-08T22:31:56.101Z,74.76
2022-11-08T22:34:28.700Z,74.63
2022-11-08T22:37:01.155Z,74.31
2022-11-08T22:39:33.353Z,74.43
2022-11-08T22:42:06.326Z,74.91
2022-11-08T22:44:38.898Z,75.21
2022-11-08T22:47:11.163Z,75.45
2022-11-08T22:49:45.128Z,75.36
2022-11-08T22:52:17.610Z,75.14
2022-11-08T22:54:50.018Z,75.17
2022-11-08T22:57:22.275Z,74.94
2022-11-08T22:59:54.575Z,74.82
2022-11-08T23:02:32.697Z,74.78
2022-11-08T23:05:06.422Z,74.95
2022-11-08T23:07:40.911Z,74.83
2022-11-08T23:10:13.501Z,74.70
2022-11-08T23:13:03.484Z,74.77
2022-11-08T23:15:50.214Z,74.49
2022-11-08T23:18:23.042Z,74.43
2022-11-08T23:21:15.649Z,74.24
2022-11-08T23:24:05.732Z,74.28
2022-11-08T23:27:00.806Z,74.18
2022-11-08T23:29:50.455Z,74.58
2022-11-08T23:32:22.789Z,74.76
2022-11-08T23:34:55.092Z,74.74
2022-11-08T23:37:27.818Z,74.56
2022-11-08T23:40:17.825Z,74.58
2022-11-08T23:43:07.354Z,74.69
2022-11-08T23:45:39.664Z,74.62
2022-11-08T23:48:11.612Z,74.29
2022-11-08T23:50:49.895Z,74.59
2022-11-08T23:53:25.143Z,74.69
2022-11-08T23:55:57.659Z,74.48
2022-11-08T23:58:29.641Z,74.75
